Time,TemperatureF,DewpointF,PressureIn,WindDirection,WindDirectionDegrees,WindSpeedMPH,WindSpeedGustMPH,Humidity,HourlyPrecipIn,Conditions,Clouds,dailyrainin,SoftwareType,DateUTC
2013-08-07 09:09:00,67.0,61.0,29.96,WSW,248,0.0,3.0,81,0.00,,---,0.00,VWS V14.00,2013-08-07 13:09:00,
2013-08-07 09:11:00,66.7,60.0,29.96,NNE,25,0.0,0.0,79,0.00,,---,0.00,VWS V14.00,2013-08-07 13:11:00,
2013-08-07 09:13:00,66.7,60.0,29.96,NNE,25,0.0,0.0,79,0.00,,---,0.00,VWS V14.00,2013-08-07 13:13:00,
2013-08-07 09:14:00,66.7,61.0,29.96,NNE,25,0.0,0.0,82,0.00,,---,0.00,VWS V14.00,2013-08-07 13:14:00,
2013-08-07 09:15:00,66.7,59.6,29.96,NNE,26,0.0,0.0,78,0.00,,---,0.00,VWS V14.00,2013-08-07 13:15:00,
2013-08-07 09:20:00,66.7,59.6,29.95,NNE,26,0.0,0.0,78,0.00,,---,0.00,VWS V14.00,2013-08-07 13:20:00,
2013-08-07 09:25:00,66.7,59.6,29.95,NNE,26,0.0,0.0,78,0.00,,---,0.00,VWS V14.00,2013-08-07 13:25:00,
2013-08-07 09:31:00,66.8,59.7,29.95,NNE,25,0.0,0.0,78,0.00,,---,0.00,VWS V14.00,2013-08-07 13:31:00,
2013-08-07 09:36:00,67.0,60.6,29.94,NNE,25,0.0,0.0,80,0.00,,---,0.00,VWS V14.00,2013-08-07 13:36:00,
2013-08-07 09:41:00,67.1,61.1,29.94,NNE,25,0.0,0.0,81,0.00,,---,0.00,VWS V14.00,2013-08-07 13:41:00,
2013-08-07 09:46:00,67.3,61.6,29.95,NNE,25,0.0,0.0,82,0.00,,---,0.00,VWS V14.00,2013-08-07 13:46:00,
2013-08-07 09:52:00,67.4,62.1,29.95,NNE,26,0.0,0.0,83,0.00,,---,0.00,VWS V14.00,2013-08-07 13:52:00,
2013-08-07 09:57:00,67.8,63.1,29.96,NNE,26,0.0,0.0,85,0.00,,---,0.00,VWS V14.00,2013-08-07 13:57:00,
2013-08-07 10:02:00,67.9,63.9,29.96,NNE,26,0.0,0.0,87,0.00,,---,0.00,VWS V14.00,2013-08-07 14:02:00,
2013-08-07 10:07:00,68.0,64.3,29.96,NNE,26,0.0,0.0,88,0.00,,---,0.00,VWS V14.00,2013-08-07 14:07:00,
2013-08-07 10:12:00,68.2,64.8,29.96,NNE,26,0.0,0.0,89,0.00,,---,0.00,VWS V14.00,2013-08-07 14:12:00,
2013-08-07 10:18:00,68.3,64.9,29.96,NNE,26,0.0,0.0,89,0.00,,---,0.00,VWS V14.00,2013-08-07 14:18:00,
2013-08-07 10:23:00,68.3,64.6,29.96,NNE,26,0.0,0.0,88,0.00,,---,0.00,VWS V14.00,2013-08-07 14:23:00,
2013-08-07 10:28:00,68.4,64.7,29.95,NNE,26,0.0,0.0,88,0.00,,---,0.00,VWS V14.00,2013-08-07 14:28:00,
2013-08-07 10:33:00,68.5,64.8,29.96,NNE,26,0.0,0.0,88,0.00,,---,0.00,VWS V14.00,2013-08-07 14:33:00,
2013-08-07 10:38:00,68.8,65.1,29.97,NNE,26,0.0,0.0,88,0.00,,---,0.00,VWS V14.00,2013-08-07 14:38:00,
2013-08-07 10:44:00,68.8,64.8,29.96,NNE,26,0.0,0.0,87,0.00,,---,0.00,VWS V14.00,2013-08-07 14:44:00,
2013-08-07 10:49:00,68.9,64.6,29.96,NNE,25,0.0,0.0,86,0.00,,---,0.00,VWS V14.00,2013-08-07 14:49:00,
2013-08-07 10:54:00,69.0,64.3,29.95,NNE,26,0.0,0.0,85,0.00,,---,0.00,VWS V14.00,2013-08-07 14:54:00,
2013-08-07 10:59:00,69.0,63.3,29.95,NNE,25,0.0,0.0,82,0.00,,---,0.00,VWS V14.00,2013-08-07 14:59:00,
2013-08-07 11:04:00,69.1,63.0,29.96,NNE,25,0.0,0.0,81,0.00,,---,0.00,VWS V14.00,2013-08-07 15:04:00,
2013-08-07 11:09:00,69.2,63.1,29.96,NNE,25,0.0,0.0,81,0.00,,---,0.00,VWS V14.00,2013-08-07 15:09:00,
2013-08-07 11:15:00,69.2,63.5,29.96,NNE,25,0.0,0.0,82,0.00,,---,0.00,VWS V14.00,2013-08-07 15:15:00,
2013-08-07 11:20:00,69.3,63.2,29.97,NNE,24,0.0,0.0,81,0.00,,---,0.00,VWS V14.00,2013-08-07 15:20:00,
2013-08-07 11:25:00,69.3,61.8,29.97,NNE,24,0.0,0.0,77,0.00,,---,0.00,VWS V14.00,2013-08-07 15:25:00,
2013-08-07 11:30:00,69.2,59.8,29.98,NNE,24,0.0,0.0,72,0.00,,---,0.00,VWS V14.00,2013-08-07 15:30:00,
2013-08-07 11:35:00,69.2,57.4,29.98,NNE,24,0.0,0.0,66,0.00,,---,0.00,VWS V14.00,2013-08-07 15:35:00,
2013-08-07 11:41:00,69.2,55.6,29.98,NNE,25,0.0,0.0,62,0.00,,---,0.00,VWS V14.00,2013-08-07 15:41:00,
2013-08-07 11:46:00,68.8,52.5,29.97,SE,140,0.0,0.0,56,0.00,,---,0.00,VWS V14.00,2013-08-07 15:46:00,
2013-08-07 11:51:00,68.4,47.4,29.96,SSE,153,0.0,0.0,47,0.00,,---,0.00,VWS V14.00,2013-08-07 15:51:00,
2013-08-07 11:56:00,68.1,42.2,29.94,South,181,0.0,0.0,39,0.00,,---,0.00,VWS V14.00,2013-08-07 15:56:00,
2013-08-07 12:02:00,68.0,38.6,29.92,SSE,164,1.0,1.0,34,0.00,,---,0.00,VWS V14.00,2013-08-07 16:02:00,
2013-08-07 12:07:00,67.6,33.4,29.93,SW,221,1.0,3.0,28,0.00,,---,0.00,VWS V14.00,2013-08-07 16:07:00,
2013-08-07 12:12:00,67.4,38.8,29.91,ESE,111,0.0,0.0,35,0.00,,---,0.00,VWS V14.00,2013-08-07 16:12:00,